4M3 weather

Carlisle Municipal Airport
Carlisle, Arkansas, United States

Public forecast

Using degrees Fahrenheit for public forecast. Weather courtesy of forecast.io.

METAR (pilot weather report)

Closest report is Stuttgart Municipal Airport / Carl Humphrey Field, 14.2 nm (26.4 km) SSE. Retrieved 2019/09/15 05:56 UTC (34 minutes ago):

KSGT 150556Z AUTO 06005KT 6SM HZ CLR 24/20 A3013 RMK AO2 SLP202 T02440200 10289 20233 403390200 58000

TAF (pilot weather forecast)

Closest forecast is Little Rock Air Force Base, 22.5 nm (41.7 km) WNW. Retrieved 2019/09/15 07:19 UTC (0 seconds ago):

TAF KLRF 150700Z 1507/1613 VRB06KT 9999 FEW040 QNH3006INS TX33/1521Z TN21/1512Z